Flight Track Log - Related Links

Times and Time Zones

All times are in EDT time to prevent confusion due to time zone crossing. See the N131PJ flight status page for this flight to view local times or setup timezone preferences in your user account.

Time Position Orientation Groundspeed Altitude Reporting Facility
EDT Latitude Longitude Course Direction KTS MPH feet Rate Location/Type
Sun 03:29:00 PM 42.5157 -70.8687 153° Southeast  Level FlightAware Approximate
Sun 03:30:00 PM 42.5043 -70.8608 153° Southeast  Level FlightAware Approximate
Sun 03:31:00 PM 42.4929 -70.8529 153° Southeast  Level FlightAware Approximate
Sun 03:31:48 PM 42.3667 -70.5167 153° Southeast 178 205 4,900  Level KA90
Sun 03:32:00 PM 42.4815 -70.8450 153° Southeast  Level FlightAware Approximate
Sun 03:32:48 PM 42.3167 -70.4667 144° Southeast 180 207 4,900  Level KA90
Sun 03:33:00 PM 42.4701 -70.8371 153° Southeast  Level FlightAware Approximate
Sun 03:34:00 PM 42.4587 -70.8292 153° Southeast  Level FlightAware Approximate
Sun 03:34:00 PM 42.3019 -70.4609 164° South  Level Estimated
Sun 03:35:00 PM 42.4471 -70.8217 159° South  Level Estimated
Sun 03:36:00 PM 42.4357 -70.8139 153° Southeast  Level FlightAware Approximate
Sun 03:37:00 PM 42.4242 -70.8061 153° Southeast  Level FlightAware Approximate
Sun 03:41:00 PM 42.2157 -70.4275 164° South  Level Estimated
Sun 03:42:00 PM 42.2034 -70.4227 164° South  Level Estimated
Sun 03:43:00 PM 42.1911 -70.4180 164° South  Level Estimated
Sun 03:44:00 PM 42.1788 -70.4132 164° South  Level Estimated
Sun 03:45:00 PM 42.1665 -70.4084 164° South  Level Estimated
Sun 03:46:00 PM 42.1542 -70.4037 164° South  Level Estimated
Sun 03:47:00 PM 42.1419 -70.3989 164° South  Level Estimated
Sun 03:48:00 PM 42.1296 -70.3942 164° South  Level Estimated
Sun 03:49:00 PM 42.1173 -70.3894 164° South  Level Estimated
Sun 03:50:00 PM 42.1049 -70.3847 164° South  Level Estimated
Sun 03:51:00 PM 42.0926 -70.3799 164° South  Level Estimated
Sun 03:52:00 PM 42.0803 -70.3752 164° South  Level Estimated
Sun 03:53:00 PM 42.0680 -70.3704 164° South  Level Estimated
Sun 03:54:00 PM 42.0557 -70.3656 164° South  Level Estimated
Sun 03:55:00 PM 42.0434 -70.3609 164° South  Level Estimated
Sun 03:56:00 PM 42.0311 -70.3562 164° South  Level Estimated
Sun 03:57:00 PM 42.0188 -70.3514 164° South  Level Estimated
Sun 03:58:00 PM 42.0065 -70.3467 164° South  Level Estimated
Sun 03:59:00 PM 41.9942 -70.3419 164° South  Level Estimated
Sun 04:00:00 PM 41.9818 -70.3372 164° South  Level Estimated
Sun 04:01:00 PM 41.9695 -70.3325 164° South  Level Estimated
Sun 04:02:00 PM 41.9572 -70.3278 164° South  Level Estimated
Sun 04:03:00 PM 41.9449 -70.3230 164° South  Level Estimated
Sun 04:04:00 PM 41.9326 -70.3183 164° South  Level Estimated
Sun 04:05:00 PM 41.9203 -70.3136 164° South  Level Estimated
Sun 04:06:00 PM 41.9080 -70.3089 164° South  Level Estimated
Sun 04:07:00 PM 41.8957 -70.3041 164° South  Level Estimated
Sun 04:08:00 PM 41.8834 -70.2994 164° South  Level Estimated
Sun 04:09:00 PM 41.8711 -70.2947 164° South  Level Estimated
Sun 04:10:00 PM 41.8587 -70.2900 164° South  Level Estimated
Sun 04:11:00 PM 41.8464 -70.2853 164° South  Level Estimated
Sun 04:12:00 PM 41.8341 -70.2805 164° South  Level Estimated
Sun 04:13:00 PM 41.8218 -70.2758 164° South  Level Estimated
Sun 04:14:00 PM 41.8095 -70.2711 164° South  Level Estimated
Sun 04:15:00 PM 41.7972 -70.2664 164° South  Level Estimated
Sun 04:16:00 PM 41.7849 -70.2617 164° South  Level Estimated
Sun 04:17:00 PM 41.7725 -70.2570 164° South  Level Estimated
Sun 04:18:00 PM 41.7602 -70.2523 164° South  Level Estimated
Sun 04:19:00 PM 41.7479 -70.2476 164° South  Level Estimated
Sun 04:20:00 PM 41.7356 -70.2429 164° South  Level Estimated
Sun 04:21:00 PM 41.7233 -70.2382 164° South  Level Estimated
Sun 04:22:00 PM 41.7109 -70.2335 164° South  Level Estimated
Sun 04:23:00 PM 41.6986 -70.2288 164° South  Level Estimated
Sun 04:24:00 PM 41.6863 -70.2241 164° South  Level Estimated
Sun 04:25:00 PM 41.6740 -70.2195 164° South  Level Estimated
Sun 04:26:00 PM 41.6617 -70.2148 164° South  Level Estimated
Sun 04:27:00 PM 41.6493 -70.2101 164° South  Level Estimated
Sun 04:28:00 PM 41.6370 -70.2054 164° South  Level Estimated
Sun 04:29:00 PM 41.6247 -70.2007 164° South  Level Estimated
Sun 04:30:00 PM 41.6124 -70.1960 164° South  Level Estimated
Sun 04:31:00 PM 41.6001 -70.1914 164° South  Level Estimated
Sun 04:32:00 PM 41.5877 -70.1867 164° South  Level Estimated
Sun 04:33:00 PM 41.5754 -70.1820 164° South  Level Estimated
Sun 04:34:00 PM 41.5631 -70.1773 164° South  Level Estimated
Sun 04:35:00 PM 41.5508 -70.1727 164° South  Level Estimated
Sun 04:36:00 PM 41.5385 -70.1680 164° South  Level Estimated
Sun 04:37:00 PM 41.5261 -70.1633 164° South  Level Estimated

Login

Don't have an account? Register now (free) for customized features, flight alerts, and more!